createdAt,value
2019-01-21T00:07:36.522Z,0.77
2019-01-21T00:18:36.967Z,0.83
2019-01-21T00:29:39.756Z,0.79
2019-01-21T00:40:39.756Z,0.74
2019-01-21T00:51:44.572Z,0.77
2019-01-21T01:02:44.775Z,0.72
2019-01-21T01:13:48.808Z,0.71
2019-01-21T01:24:26.538Z,0.64
2019-01-21T01:35:27.326Z,0.66
2019-01-21T01:46:23.751Z,0.68
2019-01-21T01:57:06.161Z,0.72
2019-01-21T02:08:05.680Z,0.66
2019-01-21T02:19:00.490Z,0.57
2019-01-21T02:29:57.247Z,0.64
2019-01-21T02:40:56.011Z,0.64
2019-01-21T02:51:59.514Z,0.59
2019-01-21T03:03:04.529Z,0.65
2019-01-21T03:14:06.370Z,0.62
2019-01-21T03:25:10.940Z,0.62
2019-01-21T03:36:11.633Z,0.56
2019-01-21T03:47:08.852Z,0.69
2019-01-21T03:58:13.772Z,0.57
2019-01-21T04:09:17.202Z,0.64
2019-01-21T04:20:12.367Z,0.52
2019-01-21T04:31:10.721Z,0.53
2019-01-21T04:42:11.218Z,0.62
2019-01-21T04:53:13.592Z,0.61
2019-01-21T05:04:14.808Z,0.64
2019-01-21T05:15:20.023Z,0.62
2019-01-21T05:26:19.383Z,0.62
2019-01-21T05:37:19.268Z,0.62
2019-01-21T05:48:19.825Z,0.62
2019-01-21T05:59:18.287Z,0.64
2019-01-21T06:10:18.410Z,0.68
2019-01-21T06:21:23.350Z,0.69
2019-01-21T06:32:25.308Z,0.71
2019-01-21T06:43:15.481Z,0.62
2019-01-21T06:54:20.388Z,0.66
2019-01-21T07:05:25.365Z,0.75
2019-01-21T07:16:25.726Z,0.72
2019-01-21T07:27:26.222Z,0.84
2019-01-21T07:38:27.275Z,0.82
2019-01-21T07:49:28.576Z,0.86
2019-01-21T08:00:31.329Z,0.80
2019-01-21T08:11:31.285Z,0.84
2019-01-21T08:22:30.962Z,0.89
2019-01-21T08:33:31.802Z,1.04
2019-01-21T08:44:33.348Z,1.12
2019-01-21T08:55:38.062Z,1.08
2019-01-21T09:06:43.158Z,1.25
2019-01-21T09:17:48.187Z,1.28
2019-01-21T09:28:48.459Z,1.22
2019-01-21T09:39:46.954Z,1.30
2019-01-21T09:50:45.858Z,1.19
2019-01-21T10:01:47.653Z,1.36
2019-01-21T10:12:50.898Z,1.47
2019-01-21T10:23:51.888Z,1.41
2019-01-21T10:34:56.139Z,1.46
2019-01-21T10:45:58.591Z,1.59
2019-01-21T10:57:02.986Z,1.50
2019-01-21T11:08:06.324Z,1.56
2019-01-21T11:19:04.497Z,1.74
2019-01-21T11:30:08.802Z,1.82
2019-01-21T11:41:06.676Z,2.13
2019-01-21T11:52:05.012Z,2.12
2019-01-21T12:03:08.652Z,2.16
2019-01-21T12:14:10.523Z,2.06
2019-01-21T12:25:10.373Z,2.26
2019-01-21T12:36:13.500Z,2.17
2019-01-21T12:47:17.863Z,2.21
2019-01-21T12:58:21.836Z,2.32
2019-01-21T13:09:23.676Z,2.30
2019-01-21T13:20:22.251Z,2.39
2019-01-21T13:31:24.634Z,2.35
2019-01-21T13:42:24.709Z,2.34
2019-01-21T13:53:28.292Z,2.21
2019-01-21T14:04:31.538Z,2.28
2019-01-21T14:15:35.885Z,2.13
2019-01-21T14:26:40.221Z,2.26
2019-01-21T14:37:38.198Z,2.10
2019-01-21T14:48:39.750Z,2.06
2019-01-21T14:59:43.369Z,2.06
2019-01-21T15:10:46.278Z,1.95
2019-01-21T15:21:46.535Z,1.90
2019-01-21T15:32:45.138Z,1.79
2019-01-21T15:43:41.529Z,1.84
2019-01-21T15:54:31.076Z,1.82
2019-01-21T16:05:29.223Z,1.65
2019-01-21T16:16:16.023Z,1.56
2019-01-21T16:27:18.952Z,1.56
2019-01-21T16:38:17.523Z,1.54
2019-01-21T16:49:14.705Z,1.55
2019-01-21T17:00:13.157Z,1.59
2019-01-21T17:11:09.844Z,1.50
2019-01-21T17:22:10.670Z,1.50
2019-01-21T17:33:12.576Z,1.55
2019-01-21T17:44:13.095Z,1.56
2019-01-21T17:55:11.417Z,1.47
2019-01-21T18:06:16.250Z,1.52
2019-01-21T18:17:18.498Z,1.54
2019-01-21T18:28:10.454Z,1.55
2019-01-21T18:39:05.022Z,1.47
2019-01-21T18:50:06.626Z,1.46
2019-01-21T19:01:03.775Z,1.43
2019-01-21T19:12:04.993Z,1.36
2019-01-21T19:23:05.845Z,1.34
2019-01-21T19:34:01.409Z,1.37
2019-01-21T19:44:56.888Z,1.34
2019-01-21T19:55:48.079Z,1.32
2019-01-21T20:06:48.460Z,1.40
2019-01-21T20:17:42.496Z,1.10
2019-01-21T20:28:37.840Z,1.00
2019-01-21T20:39:35.439Z,0.86
2019-01-21T20:50:39.589Z,0.87
2019-01-21T21:01:41.824Z,0.71
2019-01-21T21:12:40.252Z,0.53
2019-01-21T21:23:41.941Z,0.49
2019-01-21T21:34:40.417Z,0.31
2019-01-21T21:45:39.707Z,0.34
2019-01-21T21:56:39.660Z,0.42
2019-01-21T22:07:38.666Z,0.52
2019-01-21T22:18:37.172Z,0.32
2019-01-21T22:29:39.014Z,0.24
2019-01-21T22:40:42.803Z,0.34
2019-01-21T22:51:47.825Z,0.22
2019-01-21T23:02:50.128Z,0.39
2019-01-21T23:13:55.350Z,0.24
2019-01-21T23:25:00.286Z,0.25
2019-01-21T23:36:13.873Z,0.17
2019-01-21T23:47:18.831Z,0.17
2019-01-21T23:58:24.672Z,0.22
